Time;durP1;ratioP1;P1;durP2;ratioP2;P2;SDS_P1;SDS_P2;PMS_P1;PMS_P2;Temp;Humidity;BMP_temperature;BMP_pressure;BME280_temperature;BME280_humidity;BME280_pressure;Samples;Min_cycle;Max_cycle;Signal;HPM_P1;HPM_P2
2021/12/31 00:01:03;;;;;;;9.43;5.82;;;13.60;99.90;;;;;;5094839;28;20106;-68
2021/12/31 00:03:28;;;;;;;10.35;5.90;;;13.50;99.90;;;;;;5094112;28;20073;-68
2021/12/31 00:05:54;;;;;;;8.07;6.00;;;13.50;99.90;;;;;;5094596;28;20024;-68
2021/12/31 00:08:19;;;;;;;9.57;5.47;;;13.50;99.90;;;;;;5077039;28;20069;-68
2021/12/31 00:10:45;;;;;;;9.52;5.00;;;13.60;99.90;;;;;;5095426;28;20488;-68
2021/12/31 00:13:10;;;;;;;12.52;5.07;;;13.60;99.90;;;;;;5094188;28;20039;-68
2021/12/31 00:15:36;;;;;;;8.38;5.13;;;13.50;99.90;;;;;;5095322;28;20032;-68
2021/12/31 00:18:02;;;;;;;10.82;5.38;;;13.50;99.90;;;;;;5094361;28;20039;-68
2021/12/31 00:20:28;;;;;;;6.78;4.07;;;13.50;99.90;;;;;;5095497;28;20157;-68
2021/12/31 00:23:11;;;;;;;7.80;4.25;;;13.50;99.90;;;;;;5093564;28;20035;-68
2021/12/31 00:25:40;;;;;;;10.25;4.32;;;13.50;99.90;;;;;;5094564;28;20342;-68
2021/12/31 00:28:06;;;;;;;7.50;3.90;;;13.50;99.90;;;;;;5094805;28;20064;-68
2021/12/31 00:30:32;;;;;;;12.10;5.07;;;13.60;99.90;;;;;;5095311;28;20024;-68
2021/12/31 00:32:58;;;;;;;9.52;3.72;;;13.50;99.90;;;;;;5076744;28;20028;-68
2021/12/31 00:35:23;;;;;;;8.27;3.58;;;13.60;99.90;;;;;;5093779;28;20032;-69
2021/12/31 00:37:49;;;;;;;7.07;3.67;;;13.60;99.90;;;;;;5095185;28;20453;-69
2021/12/31 00:40:16;;;;;;;8.35;3.90;;;13.60;99.90;;;;;;5093963;28;20032;-68
2021/12/31 00:42:42;;;;;;;8.75;3.63;;;13.60;99.90;;;;;;5076175;28;20059;-68
2021/12/31 00:45:11;;;;;;;7.07;3.33;;;13.60;99.90;;;;;;5093902;28;20105;-68
2021/12/31 00:47:37;;;;;;;8.50;3.50;;;13.60;99.90;;;;;;5076288;28;20024;-68
2021/12/31 00:50:03;;;;;;;7.22;3.47;;;13.60;99.90;;;;;;5093236;28;20024;-68
2021/12/31 00:52:28;;;;;;;7.80;3.22;;;13.60;99.90;;;;;;5093922;28;20024;-68
2021/12/31 00:54:54;;;;;;;9.20;3.20;;;13.70;99.90;;;;;;5077004;28;20027;-69
2021/12/31 00:57:20;;;;;;;7.82;3.20;;;13.70;99.90;;;;;;5094836;28;20100;-68
2021/12/31 00:59:46;;;;;;;6.88;3.28;;;13.70;99.90;;;;;;5094570;28;20107;-68
2021/12/31 01:02:12;;;;;;;6.63;2.80;;;13.70;99.90;;;;;;5092869;28;20028;-68
2021/12/31 01:04:38;;;;;;;5.30;2.80;;;13.70;99.90;;;;;;5093271;28;20516;-68
2021/12/31 01:07:03;;;;;;;8.68;2.83;;;13.80;99.90;;;;;;5093241;28;20107;-68
2021/12/31 01:09:30;;;;;;;8.23;3.03;;;13.80;99.90;;;;;;5075942;28;20046;-68
2021/12/31 01:11:57;;;;;;;8.57;2.95;;;13.80;99.90;;;;;;5094578;28;20019;-68
2021/12/31 01:14:30;;;;;;;8.63;2.90;;;13.90;99.90;;;;;;5076024;28;20035;-68
2021/12/31 01:17:00;;;;;;;;;;;14.00;99.90;;;;;;5093306;28;20024;-68
2021/12/31 01:21:55;;;;;;;5.70;2.38;;;14.00;99.90;;;;;;5092921;28;20034;-68
2021/12/31 01:24:25;;;;;;;5.13;2.60;;;14.00;99.90;;;;;;5076594;28;20111;-68
2021/12/31 01:26:51;;;;;;;4.18;2.60;;;14.00;99.90;;;;;;5076430;28;20016;-68
2021/12/31 01:29:16;;;;;;;5.57;2.60;;;14.00;99.90;;;;;;5075736;28;20025;-68
2021/12/31 01:31:42;;;;;;;5.78;2.70;;;14.00;99.90;;;;;;5092847;28;20081;-68
2021/12/31 01:34:07;;;;;;;8.57;2.67;;;14.10;99.90;;;;;;5093108;28;20077;-68
2021/12/31 01:36:33;;;;;;;6.10;2.00;;;14.10;99.90;;;;;;5075448;28;20381;-68
2021/12/31 01:38:59;;;;;;;4.20;2.30;;;14.10;99.90;;;;;;5092405;28;20026;-68
2021/12/31 01:41:24;;;;;;;5.68;2.63;;;14.10;99.90;;;;;;5075701;28;20044;-68
2021/12/31 01:43:52;;;;;;;4.47;2.00;;;14.10;99.90;;;;;;5075444;28;20032;-68
2021/12/31 01:46:17;;;;;;;5.30;2.28;;;14.20;99.90;;;;;;5092728;28;20048;-68
2021/12/31 01:51:27;;;;;;;4.80;2.35;;;14.20;99.90;;;;;;5092521;28;20039;-68
2021/12/31 01:53:53;;;;;;;6.57;2.22;;;14.20;99.90;;;;;;5093819;28;20028;-68
2021/12/31 01:56:20;;;;;;;5.90;2.28;;;14.20;99.90;;;;;;5094087;28;20024;-68
2021/12/31 01:58:52;;;;;;;7.43;2.30;;;14.20;99.90;;;;;;5094051;28;20024;-68
2021/12/31 02:01:19;;;;;;;5.50;2.50;;;14.20;99.90;;;;;;5075230;28;20493;-68
2021/12/31 02:03:45;;;;;;;3.67;1.80;;;14.10;99.90;;;;;;5092557;28;20032;-68
2021/12/31 02:06:10;;;;;;;7.53;2.50;;;14.20;99.90;;;;;;5093711;28;20023;-68
2021/12/31 02:08:36;;;;;;;6.78;2.13;;;14.20;99.90;;;;;;5075322;28;20078;-68
2021/12/31 02:11:01;;;;;;;5.05;2.20;;;14.30;99.90;;;;;;5076132;28;20023;-68
2021/12/31 02:13:28;;;;;;;4.85;2.00;;;14.30;99.90;;;;;;5093907;28;20031;-68
2021/12/31 02:15:54;;;;;;;4.40;2.38;;;14.30;99.90;;;;;;5093905;28;20021;-69
2021/12/31 02:18:19;;;;;;;6.05;2.13;;;14.30;99.90;;;;;;5075231;28;20077;-69
2021/12/31 02:20:47;;;;;;;5.03;2.30;;;14.30;99.90;;;;;;5092150;28;20028;-68
2021/12/31 02:23:19;;;;;;;5.72;2.40;;;14.20;99.90;;;;;;5092309;28;20056;-68
2021/12/31 02:25:45;;;;;;;5.57;2.25;;;14.20;99.90;;;;;;5092360;28;20012;-68
2021/12/31 02:28:12;;;;;;;4.68;1.92;;;14.20;99.90;;;;;;5091995;28;20055;-68
2021/12/31 02:30:37;;;;;;;7.00;2.20;;;14.20;99.90;;;;;;5092620;28;20086;-68
2021/12/31 02:33:04;;;;;;;4.25;2.08;;;14.20;99.90;;;;;;5093747;28;20027;-68
2021/12/31 02:35:32;;;;;;;5.68;2.53;;;14.20;99.90;;;;;;5091921;28;20024;-68
2021/12/31 02:37:58;;;;;;;8.65;2.40;;;14.30;99.90;;;;;;5075091;28;20449;-68
2021/12/31 02:40:24;;;;;;;7.70;2.22;;;14.30;99.90;;;;;;5092118;28;20047;-68
2021/12/31 02:42:49;;;;;;;6.43;2.15;;;14.20;99.90;;;;;;5092845;28;20044;-68
2021/12/31 02:45:15;;;;;;;8.13;2.42;;;14.30;99.90;;;;;;5091834;28;20438;-68
2021/12/31 02:47:45;;;;;;;5.45;2.45;;;14.30;99.90;;;;;;5093348;28;20028;-68
2021/12/31 02:50:16;;;;;;;6.20;2.10;;;14.30;99.90;;;;;;5094951;28;20016;-68
2021/12/31 02:52:42;;;;;;;4.28;2.13;;;14.30;99.90;;;;;;5095824;28;20040;-68
2021/12/31 02:55:10;;;;;;;4.45;2.00;;;14.30;99.90;;;;;;5095768;28;20465;-68
2021/12/31 02:57:38;;;;;;;4.82;2.10;;;14.30;99.90;;;;;;5095998;28;20105;-68
2021/12/31 03:00:05;;;;;;;5.15;2.17;;;14.30;99.90;;;;;;5097125;28;20020;-68
2021/12/31 03:02:32;;;;;;;8.00;2.05;;;14.30;99.90;;;;;;5096696;28;20074;-68
2021/12/31 03:05:00;;;;;;;5.22;2.05;;;14.30;99.90;;;;;;5095838;28;20020;-68
2021/12/31 03:07:26;;;;;;;6.53;1.95;;;14.40;99.90;;;;;;5095133;28;20104;-68
2021/12/31 03:09:53;;;;;;;5.22;2.13;;;14.40;99.90;;;;;;5095450;28;20110;-68
2021/12/31 03:12:19;;;;;;;3.85;2.13;;;14.30;99.90;;;;;;5078662;28;20093;-68
2021/12/31 03:14:47;;;;;;;3.83;1.58;;;14.30;99.90;;;;;;5078126;28;20031;-68
2021/12/31 03:17:13;;;;;;;6.75;2.30;;;14.20;99.90;;;;;;5095610;28;20078;-68
2021/12/31 03:19:39;;;;;;;5.80;2.00;;;14.30;99.90;;;;;;5096140;28;20024;-68
2021/12/31 03:22:05;;;;;;;5.45;1.83;;;14.30;99.90;;;;;;5096586;28;20081;-68
2021/12/31 03:24:31;;;;;;;3.95;1.98;;;14.20;99.90;;;;;;5078243;28;20538;-68
2021/12/31 03:26:57;;;;;;;5.35;2.10;;;14.20;99.90;;;;;;5096572;28;20016;-68
2021/12/31 03:29:23;;;;;;;2.35;1.73;;;14.20;99.90;;;;;;5077854;28;20039;-68
2021/12/31 03:31:48;;;;;;;11.05;2.83;;;14.20;99.90;;;;;;5095304;28;20032;-68
2021/12/31 03:34:14;;;;;;;4.65;2.20;;;14.20;99.90;;;;;;5096427;28;20026;-68
2021/12/31 03:36:41;;;;;;;6.85;2.10;;;14.20;99.90;;;;;;5077798;28;20028;-68
2021/12/31 03:39:07;;;;;;;4.90;2.08;;;14.20;99.90;;;;;;5094550;28;20031;-68
2021/12/31 03:41:32;;;;;;;6.18;2.10;;;14.10;99.90;;;;;;5094559;28;20044;-68
2021/12/31 03:43:58;;;;;;;4.80;1.90;;;14.20;99.90;;;;;;5094458;28;20025;-68
2021/12/31 03:46:23;;;;;;;4.55;2.53;;;14.10;99.90;;;;;;5094797;28;20027;-68
2021/12/31 03:48:49;;;;;;;6.35;2.85;;;14.10;99.90;;;;;;5094377;28;20077;-68
2021/12/31 03:51:15;;;;;;;5.90;2.25;;;14.10;99.90;;;;;;5094686;28;20526;-68
2021/12/31 03:53:40;;;;;;;6.03;2.17;;;14.10;99.90;;;;;;5094226;28;20107;-68
2021/12/31 03:56:06;;;;;;;5.15;2.10;;;14.10;99.90;;;;;;5096047;28;20024;-69
2021/12/31 03:58:31;;;;;;;4.78;2.35;;;14.10;99.90;;;;;;5094522;28;20469;-68
2021/12/31 04:00:57;;;;;;;6.95;2.33;;;14.10;99.90;;;;;;5095640;28;20500;-68
2021/12/31 04:03:22;;;;;;;3.80;2.00;;;14.10;99.90;;;;;;5095806;28;20027;-68
2021/12/31 04:05:50;;;;;;;5.80;2.50;;;14.10;99.90;;;;;;5094017;28;20473;-68
2021/12/31 04:08:15;;;;;;;6.20;2.00;;;14.10;99.90;;;;;;5095798;28;20019;-68
2021/12/31 04:10:41;;;;;;;3.92;1.80;;;14.10;99.90;;;;;;5095707;28;20020;-68
2021/12/31 04:13:07;;;;;;;4.88;1.77;;;14.10;99.90;;;;;;5076994;28;20028;-68
2021/12/31 04:15:32;;;;;;;5.63;2.00;;;14.10;99.90;;;;;;5095637;28;20028;-68
2021/12/31 04:17:58;;;;;;;7.55;2.10;;;14.00;99.90;;;;;;5095278;28;20032;-68
2021/12/31 04:20:34;;;;;;;4.53;1.92;;;14.10;99.90;;;;;;5094084;28;20480;-68
2021/12/31 04:23:03;;;;;;;3.50;1.80;;;14.10;99.90;;;;;;5095429;28;20024;-68
2021/12/31 04:25:28;;;;;;;6.68;2.22;;;14.10;99.90;;;;;;5094032;28;20031;-68
2021/12/31 04:27:54;;;;;;;5.68;2.00;;;14.10;99.90;;;;;;5094395;28;20374;-68
2021/12/31 04:30:20;;;;;;;4.65;2.00;;;14.00;99.90;;;;;;5093902;28;20024;-68
2021/12/31 04:32:46;;;;;;;3.90;1.70;;;14.00;99.90;;;;;;5094175;28;20385;-68
2021/12/31 04:35:12;;;;;;;6.90;1.73;;;14.00;99.90;;;;;;5076539;28;20031;-68
2021/12/31 04:37:41;;;;;;;4.18;1.98;;;14.10;99.90;;;;;;5095196;28;20520;-68
2021/12/31 04:40:09;;;;;;;5.35;2.28;;;14.10;99.90;;;;;;5077402;28;20051;-68
2021/12/31 04:42:34;;;;;;;4.82;2.00;;;14.10;99.90;;;;;;5093044;28;20073;-68
2021/12/31 04:45:00;;;;;;;3.53;1.77;;;14.10;99.90;;;;;;5093907;28;20024;-68
2021/12/31 04:47:25;;;;;;;6.03;2.05;;;14.00;99.90;;;;;;5095058;28;20062;-68
2021/12/31 04:49:51;;;;;;;3.35;1.75;;;14.00;99.90;;;;;;5093275;28;20024;-68
2021/12/31 04:52:16;;;;;;;4.57;2.00;;;14.00;99.90;;;;;;5093231;28;20043;-68
2021/12/31 04:54:42;;;;;;;5.13;2.10;;;14.10;99.90;;;;;;5076713;28;20040;-68
2021/12/31 04:57:07;;;;;;;4.60;2.03;;;14.10;99.90;;;;;;5094862;28;20031;-68
2021/12/31 04:59:33;;;;;;;3.03;1.75;;;14.00;99.90;;;;;;5076181;28;20035;-68
2021/12/31 05:01:58;;;;;;;3.10;2.08;;;14.00;99.90;;;;;;5093222;28;20034;-68
2021/12/31 05:04:24;;;;;;;7.07;2.00;;;14.00;99.90;;;;;;5094742;28;20028;-68
2021/12/31 05:06:50;;;;;;;4.60;2.08;;;14.10;99.90;;;;;;5093242;28;20020;-68
2021/12/31 05:09:16;;;;;;;4.90;1.77;;;14.10;99.90;;;;;;5094098;28;20043;-68
2021/12/31 05:11:43;;;;;;;6.35;1.95;;;14.00;99.90;;;;;;5075614;28;20032;-68
2021/12/31 05:14:09;;;;;;;4.22;1.70;;;14.00;99.90;;;;;;5093101;28;20035;-68
2021/12/31 05:16:35;;;;;;;3.67;1.77;;;14.00;99.90;;;;;;5094257;28;20107;-68
2021/12/31 05:19:02;;;;;;;4.28;1.65;;;14.00;99.90;;;;;;5092713;28;20034;-68
2021/12/31 05:21:28;;;;;;;2.38;1.75;;;14.00;99.90;;;;;;5094391;28;20034;-68
2021/12/31 05:23:54;;;;;;;4.32;1.73;;;14.00;99.90;;;;;;5075728;28;20051;-68
2021/12/31 05:26:19;;;;;;;5.20;2.08;;;14.00;99.90;;;;;;5092573;28;20016;-68
2021/12/31 05:28:45;;;;;;;4.38;1.92;;;14.00;99.90;;;;;;5093231;28;20095;-66
2021/12/31 05:31:10;;;;;;;4.88;1.67;;;14.00;99.90;;;;;;5094328;28;20024;-68
2021/12/31 05:33:36;;;;;;;4.72;1.83;;;14.00;99.90;;;;;;5092515;28;20025;-68
2021/12/31 05:36:02;;;;;;;3.70;1.60;;;14.10;99.90;;;;;;5094304;28;20028;-68
2021/12/31 05:38:27;;;;;;;4.50;2.08;;;14.00;99.90;;;;;;5094273;28;20512;-68
2021/12/31 05:40:53;;;;;;;4.85;1.90;;;14.00;99.90;;;;;;5093480;28;20420;-68
2021/12/31 05:43:18;;;;;;;6.60;2.17;;;14.10;99.90;;;;;;5094129;28;20020;-68
2021/12/31 05:45:44;;;;;;;3.42;1.70;;;14.00;99.90;;;;;;5094197;28;20453;-68
2021/12/31 05:48:09;;;;;;;6.00;2.35;;;14.00;99.90;;;;;;5093164;28;20052;-68
2021/12/31 05:50:35;;;;;;;3.85;1.70;;;14.10;99.90;;;;;;5075494;28;20099;-68
2021/12/31 05:53:01;;;;;;;4.20;1.98;;;14.10;99.90;;;;;;5092672;28;20042;-68
2021/12/31 05:55:27;;;;;;;3.10;2.05;;;14.00;99.90;;;;;;5092282;28;20035;-67
2021/12/31 05:57:55;;;;;;;3.95;2.10;;;14.00;99.90;;;;;;5094068;28;20020;-67
2021/12/31 06:00:21;;;;;;;2.88;1.83;;;13.90;99.90;;;;;;5093780;28;20525;-68
2021/12/31 06:02:47;;;;;;;4.47;1.70;;;14.00;99.90;;;;;;5092515;28;20062;-68
2021/12/31 06:05:12;;;;;;;5.28;1.73;;;14.00;99.90;;;;;;5094016;28;20047;-68
2021/12/31 06:07:38;;;;;;;4.88;2.25;;;13.90;99.90;;;;;;5076189;28;20051;-68
2021/12/31 06:10:04;;;;;;;4.25;1.80;;;14.00;99.90;;;;;;5092155;28;20020;-68
2021/12/31 06:12:30;;;;;;;4.68;1.80;;;14.00;99.90;;;;;;5092108;28;20031;-68
2021/12/31 06:14:59;;;;;;;3.40;2.00;;;14.00;99.90;;;;;;5093918;28;20024;-68
2021/12/31 06:17:27;;;;;;;6.85;2.05;;;13.90;99.90;;;;;;5092766;28;20032;-68
2021/12/31 06:19:54;;;;;;;2.85;1.90;;;13.90;99.90;;;;;;5092438;28;20032;-68
2021/12/31 06:22:21;;;;;;;3.95;1.63;;;13.90;99.90;;;;;;5093508;28;20020;-68
2021/12/31 06:24:46;;;;;;;4.15;1.77;;;14.00;99.90;;;;;;5095153;28;20459;-68
2021/12/31 06:27:12;;;;;;;3.70;1.60;;;13.90;99.90;;;;;;5079586;28;20111;-68
2021/12/31 06:29:37;;;;;;;5.65;2.20;;;13.90;99.90;;;;;;5095897;28;20354;-68
2021/12/31 06:32:04;;;;;;;5.72;2.05;;;13.90;99.90;;;;;;5078969;28;20039;-68
2021/12/31 06:34:30;;;;;;;4.47;2.13;;;13.80;99.90;;;;;;5095893;28;20077;-68
2021/12/31 06:36:55;;;;;;;5.05;1.85;;;13.90;99.90;;;;;;5097284;28;20028;-68
2021/12/31 06:39:21;;;;;;;4.55;1.88;;;13.80;99.90;;;;;;5097245;28;20024;-68
2021/12/31 06:41:46;;;;;;;6.43;1.98;;;13.90;99.90;;;;;;5096888;28;20481;-68
2021/12/31 06:44:12;;;;;;;4.15;1.95;;;13.90;99.90;;;;;;5097141;28;20024;-68
2021/12/31 06:46:38;;;;;;;3.42;1.70;;;13.90;99.90;;;;;;5097051;28;20103;-67
2021/12/31 06:49:03;;;;;;;4.45;1.90;;;13.80;99.90;;;;;;5095524;28;20066;-68
2021/12/31 06:51:28;;;;;;;3.45;1.52;;;13.90;99.90;;;;;;5095838;28;20035;-68
2021/12/31 06:53:54;;;;;;;4.93;1.98;;;13.90;99.90;;;;;;5097272;28;20059;-68
2021/12/31 06:56:20;;;;;;;5.70;1.95;;;13.90;99.90;;;;;;5096914;28;20024;-68
2021/12/31 06:58:45;;;;;;;3.83;1.70;;;13.90;99.90;;;;;;5095697;28;20058;-68
2021/12/31 07:01:11;;;;;;;5.25;1.73;;;13.90;99.90;;;;;;5097112;28;20072;-67
2021/12/31 07:03:36;;;;;;;4.47;1.70;;;13.80;99.90;;;;;;5078885;28;20066;-68
2021/12/31 07:06:02;;;;;;;6.40;1.92;;;13.80;99.90;;;;;;5097001;28;20020;-68
2021/12/31 07:08:28;;;;;;;5.85;2.05;;;13.80;99.90;;;;;;5096981;28;20021;-68
2021/12/31 07:10:54;;;;;;;6.30;1.85;;;13.70;99.90;;;;;;5095073;28;20028;-68
2021/12/31 07:13:19;;;;;;;5.20;2.00;;;13.60;99.90;;;;;;5096593;28;20035;-68
2021/12/31 07:15:49;;;;;;;5.15;1.90;;;13.40;99.90;;;;;;5095459;28;20483;-68
2021/12/31 07:18:16;;;;;;;5.95;1.98;;;13.40;99.90;;;;;;5096766;28;20373;-68
2021/12/31 07:20:42;;;;;;;12.73;2.10;;;13.40;99.90;;;;;;5094906;28;20024;-67
2021/12/31 07:23:10;;;;;;;4.85;2.15;;;13.40;99.90;;;;;;5095435;28;20039;-67
2021/12/31 07:25:35;;;;;;;4.15;2.40;;;13.40;99.90;;;;;;5095255;28;20055;-68
2021/12/31 07:28:02;;;;;;;5.05;2.03;;;13.30;99.90;;;;;;5094818;28;20052;-68
2021/12/31 07:30:28;;;;;;;4.68;2.05;;;13.30;99.90;;;;;;5078078;28;20110;-68
2021/12/31 07:32:53;;;;;;;5.10;2.00;;;13.20;99.90;;;;;;5096497;28;20495;-68
2021/12/31 07:35:19;;;;;;;4.63;2.15;;;13.40;99.90;;;;;;5096126;28;20024;-68
2021/12/31 07:37:45;;;;;;;4.90;2.08;;;13.30;99.90;;;;;;5096444;28;20055;-68
2021/12/31 07:40:12;;;;;;;3.15;2.22;;;13.40;99.90;;;;;;5095228;28;20039;-67
2021/12/31 07:42:38;;;;;;;3.78;2.30;;;13.40;99.90;;;;;;5095568;28;20085;-68
2021/12/31 07:45:05;;;;;;;5.70;2.75;;;13.50;99.90;;;;;;5094993;28;20055;-68
2021/12/31 07:47:31;;;;;;;3.75;2.20;;;13.50;99.90;;;;;;5077559;28;20024;-68
2021/12/31 07:49:57;;;;;;;5.65;2.25;;;13.50;99.90;;;;;;5094705;28;20024;-68
2021/12/31 07:52:22;;;;;;;4.97;2.13;;;13.50;99.90;;;;;;5078574;28;20028;-67
2021/12/31 07:54:48;;;;;;;3.58;2.15;;;13.50;99.90;;;;;;5094622;28;20070;-68
2021/12/31 07:57:13;;;;;;;5.65;2.00;;;13.50;99.90;;;;;;5095001;28;20120;-68
2021/12/31 07:59:39;;;;;;;4.55;2.22;;;13.50;99.90;;;;;;5094216;28;20034;-68
2021/12/31 08:02:05;;;;;;;5.88;2.30;;;13.60;99.90;;;;;;5077186;28;20030;-68
2021/12/31 08:04:30;;;;;;;7.40;2.72;;;13.50;99.90;;;;;;5095272;28;20028;-68
2021/12/31 08:06:56;;;;;;;7.90;2.25;;;13.50;99.90;;;;;;5094034;28;20028;-68
2021/12/31 08:09:21;;;;;;;6.15;2.50;;;13.60;99.90;;;;;;5077052;28;20112;-68
2021/12/31 08:11:47;;;;;;;3.88;2.20;;;13.60;99.90;;;;;;5077593;28;20489;-68
2021/12/31 08:14:12;;;;;;;6.60;2.33;;;13.60;99.90;;;;;;5093850;28;20035;-68
2021/12/31 08:16:38;;;;;;;5.18;2.10;;;13.70;99.90;;;;;;5095394;28;20031;-68
2021/12/31 08:19:03;;;;;;;2.90;1.98;;;13.70;99.90;;;;;;5093798;28;20105;-68
2021/12/31 08:21:29;;;;;;;5.20;2.08;;;13.80;99.90;;;;;;5093657;28;20024;-68
2021/12/31 08:23:54;;;;;;;4.20;2.00;;;14.70;99.90;;;;;;5094973;28;20028;-68
2021/12/31 08:26:20;;;;;;;4.57;1.80;;;14.80;99.90;;;;;;5076796;28;20016;-68
2021/12/31 08:28:46;;;;;;;4.13;1.80;;;15.30;99.90;;;;;;5077317;28;20077;-68
2021/12/31 08:31:12;;;;;;;4.50;2.13;;;15.40;99.90;;;;;;5095311;28;20377;-68
2021/12/31 08:33:37;;;;;;;5.68;2.17;;;15.40;99.90;;;;;;5095318;28;20220;-67
2021/12/31 08:36:03;;;;;;;4.90;2.28;;;15.40;99.90;;;;;;5094718;28;20028;-68
2021/12/31 08:38:29;;;;;;;5.57;1.92;;;15.40;99.90;;;;;;5076758;28;20031;-68
2021/12/31 08:40:56;;;;;;;3.10;2.05;;;14.90;99.90;;;;;;5093876;28;20134;-68
2021/12/31 08:43:22;;;;;;;5.93;2.00;;;14.80;99.90;;;;;;5094829;28;20019;-68
2021/12/31 08:45:47;;;;;;;5.15;2.22;;;14.80;99.90;;;;;;5093882;28;20032;-67
2021/12/31 08:48:13;;;;;;;4.60;2.00;;;14.70;99.90;;;;;;5094747;28;20020;-68
2021/12/31 08:50:38;;;;;;;3.70;1.98;;;14.50;99.90;;;;;;5095699;28;20110;-68
2021/12/31 08:53:04;;;;;;;2.78;2.28;;;14.20;99.90;;;;;;5094682;28;20107;-68
2021/12/31 08:55:30;;;;;;;3.95;2.10;;;14.00;99.90;;;;;;5093558;28;20099;-68
2021/12/31 08:57:56;;;;;;;6.40;2.30;;;14.00;99.90;;;;;;5094602;28;20082;-68
2021/12/31 09:00:21;;;;;;;4.63;2.25;;;13.90;99.90;;;;;;5092999;28;20024;-69
2021/12/31 09:02:49;;;;;;;3.58;2.17;;;14.00;99.90;;;;;;5093734;28;20073;-68
2021/12/31 09:05:15;;;;;;;4.47;1.98;;;14.00;99.90;;;;;;5094509;28;20020;-68
2021/12/31 09:07:41;;;;;;;3.95;2.10;;;14.00;99.90;;;;;;5094120;28;20032;-68
2021/12/31 09:10:08;;;;;;;3.40;2.33;;;14.00;99.90;;;;;;5094616;28;20023;-68
2021/12/31 09:12:34;;;;;;;5.93;2.20;;;14.10;99.90;;;;;;5093091;28;20491;-68
2021/12/31 09:14:59;;;;;;;4.65;2.40;;;14.20;99.90;;;;;;5093174;28;20150;-68
2021/12/31 09:17:25;;;;;;;4.07;2.15;;;14.30;99.90;;;;;;5092735;28;20036;-68
2021/12/31 09:19:51;;;;;;;3.92;1.92;;;14.20;99.90;;;;;;5093256;28;20464;-68
2021/12/31 09:22:16;;;;;;;4.25;2.00;;;14.20;99.90;;;;;;5093021;28;20028;-68
2021/12/31 09:24:42;;;;;;;6.97;2.22;;;14.30;99.90;;;;;;5092968;28;20028;-68
2021/12/31 09:27:08;;;;;;;4.93;2.00;;;14.60;99.90;;;;;;5093195;28;20031;-68
2021/12/31 09:29:34;;;;;;;3.22;1.65;;;14.60;99.90;;;;;;5092664;28;20027;-68
2021/12/31 09:32:00;;;;;;;3.72;2.13;;;14.50;99.90;;;;;;5075698;28;20020;-68
2021/12/31 09:34:25;;;;;;;3.97;2.30;;;14.60;99.90;;;;;;5094297;28;20031;-68
2021/12/31 09:36:51;;;;;;;3.70;1.85;;;14.50;99.90;;;;;;5092503;28;20028;-68
2021/12/31 09:39:17;;;;;;;6.10;1.88;;;14.40;99.90;;;;;;5092761;28;20024;-68
2021/12/31 09:41:43;;;;;;;2.65;1.90;;;14.40;99.90;;;;;;5092182;28;20044;-68
2021/12/31 09:44:10;;;;;;;3.25;1.60;;;14.40;99.90;;;;;;5092370;28;20033;-68
2021/12/31 09:46:36;;;;;;;3.25;1.60;;;14.40;99.90;;;;;;5092396;28;20027;-68
2021/12/31 09:49:02;;;;;;;4.00;1.95;;;14.50;99.90;;;;;;5093883;28;20024;-68
2021/12/31 09:51:28;;;;;;;4.35;1.67;;;14.50;99.90;;;;;;5092750;28;20020;-68
2021/12/31 09:53:58;;;;;;;5.18;1.98;;;14.50;99.90;;;;;;5094102;28;20031;-68
2021/12/31 09:56:24;;;;;;;3.90;1.95;;;14.50;99.90;;;;;;5094124;28;20020;-68
2021/12/31 09:58:50;;;;;;;3.30;1.85;;;14.60;99.90;;;;;;5096043;28;20020;-68
2021/12/31 10:01:15;;;;;;;1.88;1.60;;;14.70;99.90;;;;;;5080042;28;20020;-68
2021/12/31 10:03:52;;;;;;;4.13;1.90;;;14.80;99.90;;;;;;5096278;28;20056;-68
2021/12/31 10:06:17;;;;;;;4.82;1.75;;;14.90;99.90;;;;;;5098165;28;20023;-68
2021/12/31 10:08:44;;;;;;;2.95;1.58;;;15.00;99.90;;;;;;5079367;28;20401;-68
2021/12/31 10:11:22;;;;;;;3.45;1.60;;;15.00;99.90;;;;;;5079301;28;20024;-66
2021/12/31 10:13:56;;;;;;;3.47;1.70;;;15.20;99.90;;;;;;5079839;28;20024;-68
2021/12/31 10:16:26;;;;;;;2.97;1.73;;;15.10;99.90;;;;;;5096462;28;20473;-69
2021/12/31 10:19:13;;;;;;;2.60;1.50;;;14.90;99.90;;;;;;5096068;28;20365;-68
2021/12/31 10:21:43;;;;;;;3.83;1.60;;;14.80;99.90;;;;;;5095967;28;20159;-68
2021/12/31 10:24:32;;;;;;;5.25;1.75;;;14.70;99.90;;;;;;5096238;28;20052;-68
2021/12/31 10:27:02;;;;;;;3.05;1.60;;;14.80;99.90;;;;;;5096034;28;20020;-68
2021/12/31 10:29:28;;;;;;;2.95;2.00;;;14.80;99.90;;;;;;5097688;28;20058;-68
2021/12/31 10:31:55;;;;;;;1.85;1.50;;;14.90;99.90;;;;;;5097075;28;20100;-68
2021/12/31 10:34:37;;;;;;;1.80;1.50;;;15.00;99.90;;;;;;5095798;28;20107;-68
2021/12/31 10:37:14;;;;;;;4.10;1.23;;;15.10;99.90;;;;;;5097330;28;20028;-68
2021/12/31 10:39:40;;;;;;;2.85;1.67;;;15.40;99.90;;;;;;5097198;28;20469;-67
2021/12/31 10:42:11;;;;;;;2.17;1.40;;;15.50;99.90;;;;;;5096686;28;20055;-68
2021/12/31 10:44:42;;;;;;;3.33;1.33;;;15.40;99.90;;;;;;5097369;28;20462;-68
2021/12/31 10:47:10;;;;;;;2.78;1.40;;;15.30;99.90;;;;;;5097338;28;20020;-68
2021/12/31 10:52:52;;;;;;;1.52;1.23;;;15.60;99.90;;;;;;5091757;28;20360;-68
2021/12/31 10:55:22;;;;;;;3.50;1.50;;;15.60;99.90;;;;;;5091584;28;20031;-67
2021/12/31 10:57:50;;;;;;;2.45;1.40;;;15.40;99.90;;;;;;5090134;28;20027;-67
2021/12/31 11:00:17;;;;;;;2.95;1.50;;;15.30;99.90;;;;;;5090086;28;20016;-67
2021/12/31 11:02:43;;;;;;;2.80;1.40;;;15.20;99.90;;;;;;5090037;28;20021;-67
2021/12/31 11:05:11;;;;;;;2.75;1.58;;;15.00;99.90;;;;;;5090206;28;20476;-67
2021/12/31 11:07:39;;;;;;;3.00;1.50;;;14.90;99.90;;;;;;5091390;28;20522;-67
2021/12/31 11:10:05;;;;;;;6.65;1.70;;;14.80;99.90;;;;;;5091113;28;20051;-67
2021/12/31 11:12:31;;;;;;;2.78;2.00;;;14.80;99.90;;;;;;5089905;28;20024;-67
2021/12/31 11:14:57;;;;;;;3.00;1.88;;;14.70;99.90;;;;;;5089413;28;20024;-67
2021/12/31 11:17:24;;;;;;;2.47;1.50;;;14.70;99.90;;;;;;5089488;28;20430;-67
2021/12/31 11:19:50;;;;;;;5.05;1.70;;;14.70;99.90;;;;;;5089576;28;20036;-68
2021/12/31 11:22:17;;;;;;;2.05;1.75;;;14.80;99.90;;;;;;5089645;28;20374;-67
2021/12/31 11:24:44;;;;;;;2.22;1.45;;;14.80;99.90;;;;;;5073587;28;20043;-68
2021/12/31 11:27:31;;;;;;;4.03;1.83;;;14.80;99.90;;;;;;5090916;28;20022;-67
2021/12/31 11:29:59;;;;;;;3.25;1.70;;;14.60;99.90;;;;;;5090816;28;20169;-67
2021/12/31 11:35:46;;;;;;;2.92;1.75;;;14.60;99.90;;;;;;5112183;27;20404;-68
2021/12/31 11:38:37;;;;;;;3.15;1.75;;;14.50;99.90;;;;;;5110220;28;20365;-68
2021/12/31 11:41:07;;;;;;;4.93;2.17;;;14.40;99.90;;;;;;5111272;28;20023;-67
2021/12/31 11:43:34;;;;;;;3.17;2.05;;;14.40;99.90;;;;;;5110434;28;20052;-67
2021/12/31 11:46:29;;;;;;;3.42;1.77;;;14.30;99.90;;;;;;5111810;28;20461;-67
2021/12/31 11:48:56;;;;;;;3.95;1.83;;;14.40;99.90;;;;;;5109888;28;20023;-67
2021/12/31 11:51:34;;;;;;;3.75;2.05;;;14.30;99.90;;;;;;5111689;28;20136;-68
2021/12/31 11:56:45;;;;;;;2.38;1.92;;;14.30;99.90;;;;;;5112214;27;20288;-67
2021/12/31 11:59:16;;;;;;;2.63;2.03;;;14.20;99.90;;;;;;5111657;28;20028;-67
2021/12/31 12:02:06;;;;;;;3.70;1.98;;;14.20;99.90;;;;;;5111365;28;20020;-67
2021/12/31 12:04:33;;;;;;;5.60;2.22;;;14.20;99.90;;;;;;5111198;28;20407;-67
2021/12/31 12:12:27;;;;;;;3.28;1.63;;;14.20;99.90;;;;;;5112252;27;20284;-68
2021/12/31 12:14:56;;;;;;;2.92;1.83;;;14.30;99.90;;;;;;5110580;28;20035;-68
2021/12/31 12:17:36;;;;;;;4.43;2.13;;;14.30;99.90;;;;;;5110389;28;20032;-68
2021/12/31 12:22:54;;;;;;;1.92;1.73;;;14.40;99.90;;;;;;5091848;28;20563;-68
2021/12/31 12:25:24;;;;;;;4.63;2.10;;;14.40;99.90;;;;;;5091588;28;20477;-68
2021/12/31 12:27:54;;;;;;;3.55;2.00;;;14.50;99.90;;;;;;5089827;28;20539;-68
2021/12/31 12:30:20;;;;;;;4.07;2.22;;;14.50;99.90;;;;;;5090256;28;20424;-68
2021/12/31 12:35:28;;;;;;;3.80;2.08;;;14.60;99.90;;;;;;5112244;27;20351;-67
2021/12/31 12:37:56;;;;;;;3.45;1.60;;;14.70;99.90;;;;;;5110518;28;20036;-67
2021/12/31 12:40:44;;;;;;;3.72;1.80;;;14.70;99.90;;;;;;5093099;28;20094;-68
2021/12/31 12:43:32;;;;;;;2.70;1.85;;;14.80;99.90;;;;;;5111316;28;20016;-68
2021/12/31 12:46:02;;;;;;;2.25;1.90;;;14.80;99.90;;;;;;5111118;28;20473;-67
2021/12/31 12:48:39;;;;;;;1.95;1.67;;;14.90;99.90;;;;;;5110756;28;20024;-67
2021/12/31 12:51:07;;;;;;;4.35;1.95;;;14.90;99.90;;;;;;5111443;28;20035;-67
2021/12/31 12:53:36;;;;;;;3.03;1.65;;;15.00;99.90;;;;;;5111584;28;20028;-67
2021/12/31 12:56:12;;;;;;;2.35;1.70;;;15.00;99.90;;;;;;5111621;28;20497;-67
2021/12/31 12:58:41;;;;;;;3.20;2.05;;;14.90;99.90;;;;;;5111523;28;20027;-67
2021/12/31 13:01:08;;;;;;;4.80;2.22;;;14.80;99.90;;;;;;5092711;28;20080;-67
2021/12/31 13:03:51;;;;;;;4.38;2.30;;;14.80;99.90;;;;;;5111080;28;20027;-67
2021/12/31 13:06:17;;;;;;;2.65;2.22;;;14.70;99.90;;;;;;5092457;28;20126;-67
2021/12/31 13:08:43;;;;;;;2.63;2.13;;;14.70;99.90;;;;;;5111206;28;20484;-67
2021/12/31 13:11:09;;;;;;;2.88;1.77;;;14.70;99.90;;;;;;5109527;28;20058;-67
2021/12/31 13:13:37;;;;;;;2.83;1.88;;;14.70;99.90;;;;;;5110550;28;20035;-67